sensor_id;sensor_type;location;lat;lon;timestamp;temperature;humidity
48376;DHT22;34178;50.904;11.560;2022-12-29T00:01:36;7.90;99.90
48376;DHT22;34178;50.904;11.560;2022-12-29T00:04:03;7.90;99.90
48376;DHT22;34178;50.904;11.560;2022-12-29T00:06:29;7.80;99.90
48376;DHT22;34178;50.904;11.560;2022-12-29T00:08:55;7.90;99.90
48376;DHT22;34178;50.904;11.560;2022-12-29T00:11:23;7.90;99.90
48376;DHT22;34178;50.904;11.560;2022-12-29T00:13:50;8.00;99.90
48376;DHT22;34178;50.904;11.560;2022-12-29T00:16:35;8.00;99.90
48376;DHT22;34178;50.904;11.560;2022-12-29T00:19:01;8.20;99.90
48376;DHT22;34178;50.904;11.560;2022-12-29T00:21:27;8.30;99.90
48376;DHT22;34178;50.904;11.560;2022-12-29T00:24:15;8.30;99.90
48376;DHT22;34178;50.904;11.560;2022-12-29T00:29:47;8.40;99.90
48376;DHT22;34178;50.904;11.560;2022-12-29T00:32:31;8.40;99.90
48376;DHT22;34178;50.904;11.560;2022-12-29T00:37:49;8.40;99.90
48376;DHT22;34178;50.904;11.560;2022-12-29T00:40:41;8.40;99.90
48376;DHT22;34178;50.904;11.560;2022-12-29T00:43:26;8.40;99.90
48376;DHT22;34178;50.904;11.560;2022-12-29T00:46:10;8.40;99.90
48376;DHT22;34178;50.904;11.560;2022-12-29T00:48:36;8.70;99.90
48376;DHT22;34178;50.904;11.560;2022-12-29T00:51:39;8.80;99.90
48376;DHT22;34178;50.904;11.560;2022-12-29T00:54:05;8.90;99.90
48376;DHT22;34178;50.904;11.560;2022-12-29T00:56:31;8.80;99.90
48376;DHT22;34178;50.904;11.560;2022-12-29T00:59:03;9.10;99.90
48376;DHT22;34178;50.904;11.560;2022-12-29T01:01:29;9.10;99.90
48376;DHT22;34178;50.904;11.560;2022-12-29T01:03:55;9.10;99.90
48376;DHT22;34178;50.904;11.560;2022-12-29T01:06:21;9.30;99.90
48376;DHT22;34178;50.904;11.560;2022-12-29T01:08:46;9.30;99.90
48376;DHT22;34178;50.904;11.560;2022-12-29T01:11:32;9.30;99.90
48376;DHT22;34178;50.904;11.560;2022-12-29T01:13:58;9.40;99.90
48376;DHT22;34178;50.904;11.560;2022-12-29T01:16:23;9.40;99.90
48376;DHT22;34178;50.904;11.560;2022-12-29T01:18:49;9.30;99.90
48376;DHT22;34178;50.904;11.560;2022-12-29T01:21:14;9.30;99.90
48376;DHT22;34178;50.904;11.560;2022-12-29T01:23:40;9.50;99.90
48376;DHT22;34178;50.904;11.560;2022-12-29T01:26:13;9.70;99.90
48376;DHT22;34178;50.904;11.560;2022-12-29T01:28:38;9.80;99.90
48376;DHT22;34178;50.904;11.560;2022-12-29T01:31:06;9.70;99.90
48376;DHT22;34178;50.904;11.560;2022-12-29T01:33:32;9.80;99.90
48376;DHT22;34178;50.904;11.560;2022-12-29T01:36:02;9.80;99.90
48376;DHT22;34178;50.904;11.560;2022-12-29T01:38:28;9.70;99.90
48376;DHT22;34178;50.904;11.560;2022-12-29T01:40:53;9.70;99.90
48376;DHT22;34178;50.904;11.560;2022-12-29T01:43:19;9.90;99.90
48376;DHT22;34178;50.904;11.560;2022-12-29T01:45:50;9.90;99.90
48376;DHT22;34178;50.904;11.560;2022-12-29T01:48:18;9.80;99.90
48376;DHT22;34178;50.904;11.560;2022-12-29T01:50:50;10.00;99.90
48376;DHT22;34178;50.904;11.560;2022-12-29T01:53:28;10.00;99.90
48376;DHT22;34178;50.904;11.560;2022-12-29T01:55:59;10.00;99.90
48376;DHT22;34178;50.904;11.560;2022-12-29T01:58:29;10.10;99.90
48376;DHT22;34178;50.904;11.560;2022-12-29T02:00:56;10.20;99.90
48376;DHT22;34178;50.904;11.560;2022-12-29T02:03:23;10.30;99.90
48376;DHT22;34178;50.904;11.560;2022-12-29T02:08:24;10.30;99.90
48376;DHT22;34178;50.904;11.560;2022-12-29T02:10:52;10.20;99.90
48376;DHT22;34178;50.904;11.560;2022-12-29T02:13:18;10.30;99.90
48376;DHT22;34178;50.904;11.560;2022-12-29T02:26:49;10.40;99.90
48376;DHT22;34178;50.904;11.560;2022-12-29T02:35:25;10.30;99.90
48376;DHT22;34178;50.904;11.560;2022-12-29T02:43:26;10.30;99.90
48376;DHT22;34178;50.904;11.560;2022-12-29T02:46:04;10.20;99.90
48376;DHT22;34178;50.904;11.560;2022-12-29T02:48:38;10.20;99.90
48376;DHT22;34178;50.904;11.560;2022-12-29T02:54:18;10.20;99.90
48376;DHT22;34178;50.904;11.560;2022-12-29T02:59:53;10.20;99.90
48376;DHT22;34178;50.904;11.560;2022-12-29T03:13:07;10.00;99.90
48376;DHT22;34178;50.904;11.560;2022-12-29T03:16:13;9.90;99.90
48376;DHT22;34178;50.904;11.560;2022-12-29T03:19:02;9.90;99.90
48376;DHT22;34178;50.904;11.560;2022-12-29T03:21:46;9.90;99.90
48376;DHT22;34178;50.904;11.560;2022-12-29T03:24:35;9.90;99.90
48376;DHT22;34178;50.904;11.560;2022-12-29T03:27:05;9.80;99.90
48376;DHT22;34178;50.904;11.560;2022-12-29T03:29:36;9.80;99.90
48376;DHT22;34178;50.904;11.560;2022-12-29T03:32:06;9.70;99.90
48376;DHT22;34178;50.904;11.560;2022-12-29T03:34:33;9.80;99.90
48376;DHT22;34178;50.904;11.560;2022-12-29T03:37:06;9.80;99.90
48376;DHT22;34178;50.904;11.560;2022-12-29T03:39:35;9.80;99.90
48376;DHT22;34178;50.904;11.560;2022-12-29T03:42:05;9.80;99.90
48376;DHT22;34178;50.904;11.560;2022-12-29T03:44:37;9.80;99.90
48376;DHT22;34178;50.904;11.560;2022-12-29T03:47:05;9.80;99.90
48376;DHT22;34178;50.904;11.560;2022-12-29T03:49:31;9.80;99.90
48376;DHT22;34178;50.904;11.560;2022-12-29T03:51:56;9.80;99.90
48376;DHT22;34178;50.904;11.560;2022-12-29T03:54:22;9.80;99.90
48376;DHT22;34178;50.904;11.560;2022-12-29T03:56:48;10.00;99.90
48376;DHT22;34178;50.904;11.560;2022-12-29T03:59:13;10.10;99.90
48376;DHT22;34178;50.904;11.560;2022-12-29T04:01:39;10.10;99.90
48376;DHT22;34178;50.904;11.560;2022-12-29T04:04:05;10.10;99.90
48376;DHT22;34178;50.904;11.560;2022-12-29T04:06:30;10.10;99.90
48376;DHT22;34178;50.904;11.560;2022-12-29T04:08:56;10.20;99.90
48376;DHT22;34178;50.904;11.560;2022-12-29T04:11:22;10.20;99.90
48376;DHT22;34178;50.904;11.560;2022-12-29T04:13:48;10.20;99.90
48376;DHT22;34178;50.904;11.560;2022-12-29T04:16:14;10.20;99.90
48376;DHT22;34178;50.904;11.560;2022-12-29T04:18:39;10.20;99.90
48376;DHT22;34178;50.904;11.560;2022-12-29T04:21:05;10.20;99.90
48376;DHT22;34178;50.904;11.560;2022-12-29T04:23:36;10.20;99.90
48376;DHT22;34178;50.904;11.560;2022-12-29T04:26:03;10.30;99.90
48376;DHT22;34178;50.904;11.560;2022-12-29T04:28:29;10.30;99.90
48376;DHT22;34178;50.904;11.560;2022-12-29T04:30:55;10.30;99.90
48376;DHT22;34178;50.904;11.560;2022-12-29T04:33:20;10.30;99.90
48376;DHT22;34178;50.904;11.560;2022-12-29T04:35:47;10.30;99.90
48376;DHT22;34178;50.904;11.560;2022-12-29T04:38:13;10.30;99.90
48376;DHT22;34178;50.904;11.560;2022-12-29T04:40:40;10.30;99.90
48376;DHT22;34178;50.904;11.560;2022-12-29T04:43:06;10.20;99.90
48376;DHT22;34178;50.904;11.560;2022-12-29T04:45:32;10.10;99.90
48376;DHT22;34178;50.904;11.560;2022-12-29T04:47:58;10.10;99.90
48376;DHT22;34178;50.904;11.560;2022-12-29T04:50:24;10.10;99.90
48376;DHT22;34178;50.904;11.560;2022-12-29T04:52:49;10.00;99.90
48376;DHT22;34178;50.904;11.560;2022-12-29T04:55:15;10.00;99.90
48376;DHT22;34178;50.904;11.560;2022-12-29T04:57:41;10.00;99.90
48376;DHT22;34178;50.904;11.560;2022-12-29T05:00:07;10.00;99.90
48376;DHT22;34178;50.904;11.560;2022-12-29T05:02:34;10.10;99.90
48376;DHT22;34178;50.904;11.560;2022-12-29T05:05:00;10.20;99.90
48376;DHT22;34178;50.904;11.560;2022-12-29T05:07:26;10.10;99.90
48376;DHT22;34178;50.904;11.560;2022-12-29T05:09:51;10.10;99.90
48376;DHT22;34178;50.904;11.560;2022-12-29T05:12:17;10.10;99.90
48376;DHT22;34178;50.904;11.560;2022-12-29T05:14:43;10.10;99.90
48376;DHT22;34178;50.904;11.560;2022-12-29T05:17:08;10.30;99.90
48376;DHT22;34178;50.904;11.560;2022-12-29T05:19:34;10.30;99.90
48376;DHT22;34178;50.904;11.560;2022-12-29T05:22:00;10.20;99.90
48376;DHT22;34178;50.904;11.560;2022-12-29T05:24:26;10.30;99.90
48376;DHT22;34178;50.904;11.560;2022-12-29T05:26:51;10.30;99.90
48376;DHT22;34178;50.904;11.560;2022-12-29T05:29:17;10.30;99.90
48376;DHT22;34178;50.904;11.560;2022-12-29T05:31:42;10.30;99.90
48376;DHT22;34178;50.904;11.560;2022-12-29T05:34:10;10.30;99.90
48376;DHT22;34178;50.904;11.560;2022-12-29T05:36:36;10.30;99.90
48376;DHT22;34178;50.904;11.560;2022-12-29T05:39:02;10.30;99.90
48376;DHT22;34178;50.904;11.560;2022-12-29T05:41:28;10.30;99.90
48376;DHT22;34178;50.904;11.560;2022-12-29T05:43:53;10.30;99.90
48376;DHT22;34178;50.904;11.560;2022-12-29T05:46:19;10.30;99.90
48376;DHT22;34178;50.904;11.560;2022-12-29T05:48:45;10.30;99.90
48376;DHT22;34178;50.904;11.560;2022-12-29T05:51:10;10.30;99.90
48376;DHT22;34178;50.904;11.560;2022-12-29T05:53:36;10.30;99.90
48376;DHT22;34178;50.904;11.560;2022-12-29T05:56:02;10.20;99.90
48376;DHT22;34178;50.904;11.560;2022-12-29T05:58:27;10.20;99.90
48376;DHT22;34178;50.904;11.560;2022-12-29T06:00:53;10.20;99.90
48376;DHT22;34178;50.904;11.560;2022-12-29T06:03:19;10.30;99.90
48376;DHT22;34178;50.904;11.560;2022-12-29T06:05:47;10.30;99.90
48376;DHT22;34178;50.904;11.560;2022-12-29T06:08:13;10.30;99.90
48376;DHT22;34178;50.904;11.560;2022-12-29T06:10:39;10.30;99.90
48376;DHT22;34178;50.904;11.560;2022-12-29T06:13:04;10.30;99.90
48376;DHT22;34178;50.904;11.560;2022-12-29T06:15:33;10.20;99.90
48376;DHT22;34178;50.904;11.560;2022-12-29T06:18:00;10.20;99.90
48376;DHT22;34178;50.904;11.560;2022-12-29T06:20:25;10.20;99.90
48376;DHT22;34178;50.904;11.560;2022-12-29T06:22:51;10.10;99.90
48376;DHT22;34178;50.904;11.560;2022-12-29T06:25:17;10.10;99.90
48376;DHT22;34178;50.904;11.560;2022-12-29T06:27:43;10.00;99.90
48376;DHT22;34178;50.904;11.560;2022-12-29T06:30:09;10.00;99.90
48376;DHT22;34178;50.904;11.560;2022-12-29T06:32:35;9.90;99.90
48376;DHT22;34178;50.904;11.560;2022-12-29T06:35:02;9.80;99.90
48376;DHT22;34178;50.904;11.560;2022-12-29T06:37:28;9.80;99.90
48376;DHT22;34178;50.904;11.560;2022-12-29T06:39:54;9.70;99.90
48376;DHT22;34178;50.904;11.560;2022-12-29T06:42:20;9.80;99.90
48376;DHT22;34178;50.904;11.560;2022-12-29T06:44:46;9.80;99.90
48376;DHT22;34178;50.904;11.560;2022-12-29T06:47:11;9.70;99.90
48376;DHT22;34178;50.904;11.560;2022-12-29T06:49:37;9.80;99.90
48376;DHT22;34178;50.904;11.560;2022-12-29T06:52:03;9.70;99.90
48376;DHT22;34178;50.904;11.560;2022-12-29T06:54:30;9.70;99.90
48376;DHT22;34178;50.904;11.560;2022-12-29T06:56:56;9.70;99.90
48376;DHT22;34178;50.904;11.560;2022-12-29T06:59:21;9.70;99.90
48376;DHT22;34178;50.904;11.560;2022-12-29T07:01:47;9.70;99.90
48376;DHT22;34178;50.904;11.560;2022-12-29T07:04:13;9.70;99.90
48376;DHT22;34178;50.904;11.560;2022-12-29T07:06:38;9.70;99.90
48376;DHT22;34178;50.904;11.560;2022-12-29T07:09:06;9.70;99.90
48376;DHT22;34178;50.904;11.560;2022-12-29T07:11:32;9.70;99.90
48376;DHT22;34178;50.904;11.560;2022-12-29T07:13:59;9.60;99.90
48376;DHT22;34178;50.904;11.560;2022-12-29T07:16:25;9.60;99.90
48376;DHT22;34178;50.904;11.560;2022-12-29T07:18:51;9.60;99.90
48376;DHT22;34178;50.904;11.560;2022-12-29T07:21:17;9.50;99.90
48376;DHT22;34178;50.904;11.560;2022-12-29T07:23:43;9.50;99.90
48376;DHT22;34178;50.904;11.560;2022-12-29T07:26:12;9.40;99.90
48376;DHT22;34178;50.904;11.560;2022-12-29T07:28:38;9.30;99.90
48376;DHT22;34178;50.904;11.560;2022-12-29T07:31:05;9.30;99.90
48376;DHT22;34178;50.904;11.560;2022-12-29T07:33:31;9.40;99.90
48376;DHT22;34178;50.904;11.560;2022-12-29T07:35:57;9.50;99.90
48376;DHT22;34178;50.904;11.560;2022-12-29T07:38:23;9.50;99.90
48376;DHT22;34178;50.904;11.560;2022-12-29T07:40:49;9.60;99.90
48376;DHT22;34178;50.904;11.560;2022-12-29T07:43:14;9.50;99.90
48376;DHT22;34178;50.904;11.560;2022-12-29T07:45:40;9.50;99.90
48376;DHT22;34178;50.904;11.560;2022-12-29T07:48:06;9.50;99.90
48376;DHT22;34178;50.904;11.560;2022-12-29T07:50:35;9.50;99.90
48376;DHT22;34178;50.904;11.560;2022-12-29T07:53:01;9.50;99.90
48376;DHT22;34178;50.904;11.560;2022-12-29T07:55:27;9.80;99.90
48376;DHT22;34178;50.904;11.560;2022-12-29T07:57:54;10.00;99.90
48376;DHT22;34178;50.904;11.560;2022-12-29T08:00:20;10.20;99.90
48376;DHT22;34178;50.904;11.560;2022-12-29T08:02:46;10.30;99.90
48376;DHT22;34178;50.904;11.560;2022-12-29T08:05:11;10.20;99.90
48376;DHT22;34178;50.904;11.560;2022-12-29T08:07:37;10.20;99.90
48376;DHT22;34178;50.904;11.560;2022-12-29T08:10:03;10.20;99.90
48376;DHT22;34178;50.904;11.560;2022-12-29T08:12:29;10.30;99.90
48376;DHT22;34178;50.904;11.560;2022-12-29T08:14:55;10.70;99.90
48376;DHT22;34178;50.904;11.560;2022-12-29T08:17:20;10.80;99.90
48376;DHT22;34178;50.904;11.560;2022-12-29T08:19:46;10.90;99.90
48376;DHT22;34178;50.904;11.560;2022-12-29T08:22:13;11.00;99.90
48376;DHT22;34178;50.904;11.560;2022-12-29T08:24:39;10.90;99.90
48376;DHT22;34178;50.904;11.560;2022-12-29T08:27:05;10.80;99.90
48376;DHT22;34178;50.904;11.560;2022-12-29T08:29:31;11.00;99.90
48376;DHT22;34178;50.904;11.560;2022-12-29T08:31:56;10.90;99.90
48376;DHT22;34178;50.904;11.560;2022-12-29T08:34:22;11.10;99.90
48376;DHT22;34178;50.904;11.560;2022-12-29T08:36:48;11.10;99.90
48376;DHT22;34178;50.904;11.560;2022-12-29T08:39:14;11.00;99.90
48376;DHT22;34178;50.904;11.560;2022-12-29T08:41:39;11.20;99.90
48376;DHT22;34178;50.904;11.560;2022-12-29T08:44:06;11.10;99.90
48376;DHT22;34178;50.904;11.560;2022-12-29T08:46:31;11.10;99.90
48376;DHT22;34178;50.904;11.560;2022-12-29T08:48:57;11.00;99.90
48376;DHT22;34178;50.904;11.560;2022-12-29T08:51:23;11.10;99.90
48376;DHT22;34178;50.904;11.560;2022-12-29T08:53:48;11.10;99.90
48376;DHT22;34178;50.904;11.560;2022-12-29T08:56:15;11.10;99.90
48376;DHT22;34178;50.904;11.560;2022-12-29T08:58:41;11.10;99.90
48376;DHT22;34178;50.904;11.560;2022-12-29T09:01:07;11.50;99.90
48376;DHT22;34178;50.904;11.560;2022-12-29T09:03:33;11.60;99.90
48376;DHT22;34178;50.904;11.560;2022-12-29T09:05:58;11.70;99.90
48376;DHT22;34178;50.904;11.560;2022-12-29T09:08:24;11.90;99.90
48376;DHT22;34178;50.904;11.560;2022-12-29T09:10:50;12.00;99.90
48376;DHT22;34178;50.904;11.560;2022-12-29T09:13:16;12.00;99.90
48376;DHT22;34178;50.904;11.560;2022-12-29T09:15:42;12.00;99.90
48376;DHT22;34178;50.904;11.560;2022-12-29T09:18:09;12.10;99.90
48376;DHT22;34178;50.904;11.560;2022-12-29T09:20:35;12.10;99.90
48376;DHT22;34178;50.904;11.560;2022-12-29T09:23:00;12.20;99.90
48376;DHT22;34178;50.904;11.560;2022-12-29T09:25:28;12.30;99.90
48376;DHT22;34178;50.904;11.560;2022-12-29T09:27:54;12.40;99.90
48376;DHT22;34178;50.904;11.560;2022-12-29T09:30:22;12.40;99.90
48376;DHT22;34178;50.904;11.560;2022-12-29T09:32:49;12.40;99.90
48376;DHT22;34178;50.904;11.560;2022-12-29T09:35:15;12.50;99.90
48376;DHT22;34178;50.904;11.560;2022-12-29T09:37:42;12.50;99.90
48376;DHT22;34178;50.904;11.560;2022-12-29T09:40:22;12.40;99.90
48376;DHT22;34178;50.904;11.560;2022-12-29T09:46:26;12.50;99.90
48376;DHT22;34178;50.904;11.560;2022-12-29T09:48:37;12.40;99.90
48376;DHT22;34178;50.904;11.560;2022-12-29T09:51:08;12.40;99.90
48376;DHT22;34178;50.904;11.560;2022-12-29T09:53:42;12.50;99.90
48376;DHT22;34178;50.904;11.560;2022-12-29T09:56:22;12.40;99.90
48376;DHT22;34178;50.904;11.560;2022-12-29T09:59:04;12.50;99.90
48376;DHT22;34178;50.904;11.560;2022-12-29T10:01:41;12.50;99.90
48376;DHT22;34178;50.904;11.560;2022-12-29T10:04:09;12.50;99.90
48376;DHT22;34178;50.904;11.560;2022-12-29T10:07:24;12.50;99.90
48376;DHT22;34178;50.904;11.560;2022-12-29T10:17:25;12.40;99.90
48376;DHT22;34178;50.904;11.560;2022-12-29T10:25:14;12.30;99.90
48376;DHT22;34178;50.904;11.560;2022-12-29T10:27:42;12.40;99.90
48376;DHT22;34178;50.904;11.560;2022-12-29T10:30:12;12.50;99.90
48376;DHT22;34178;50.904;11.560;2022-12-29T10:32:56;12.50;99.90
48376;DHT22;34178;50.904;11.560;2022-12-29T10:35:26;12.50;99.90
48376;DHT22;34178;50.904;11.560;2022-12-29T10:40:28;12.60;99.90
48376;DHT22;34178;50.904;11.560;2022-12-29T10:42:57;12.60;99.90
48376;DHT22;34178;50.904;11.560;2022-12-29T10:45:27;12.60;99.90
48376;DHT22;34178;50.904;11.560;2022-12-29T10:50:20;12.70;99.90
48376;DHT22;34178;50.904;11.560;2022-12-29T10:52:46;12.70;99.90
48376;DHT22;34178;50.904;11.560;2022-12-29T10:55:17;12.70;99.90
48376;DHT22;34178;50.904;11.560;2022-12-29T10:57:45;12.60;99.90
48376;DHT22;34178;50.904;11.560;2022-12-29T11:00:16;12.70;99.90
48376;DHT22;34178;50.904;11.560;2022-12-29T11:03:08;12.70;99.90
48376;DHT22;34178;50.904;11.560;2022-12-29T11:05:52;12.70;99.90
48376;DHT22;34178;50.904;11.560;2022-12-29T11:08:23;12.70;99.90
48376;DHT22;34178;50.904;11.560;2022-12-29T11:11:01;12.70;99.90
48376;DHT22;34178;50.904;11.560;2022-12-29T11:13:30;12.70;99.90
48376;DHT22;34178;50.904;11.560;2022-12-29T11:15:56;12.60;99.90
48376;DHT22;34178;50.904;11.560;2022-12-29T11:18:34;12.60;99.90
48376;DHT22;34178;50.904;11.560;2022-12-29T11:21:05;12.60;99.90
48376;DHT22;34178;50.904;11.560;2022-12-29T11:26:27;12.70;99.90
48376;DHT22;34178;50.904;11.560;2022-12-29T11:31:54;12.60;99.90
48376;DHT22;34178;50.904;11.560;2022-12-29T11:34:22;12.60;99.90
48376;DHT22;34178;50.904;11.560;2022-12-29T11:36:50;12.60;99.90
48376;DHT22;34178;50.904;11.560;2022-12-29T11:39:49;12.60;99.90
48376;DHT22;34178;50.904;11.560;2022-12-29T11:42:18;12.60;99.90
48376;DHT22;34178;50.904;11.560;2022-12-29T11:44:47;12.60;99.90
48376;DHT22;34178;50.904;11.560;2022-12-29T11:47:33;12.50;99.90
48376;DHT22;34178;50.904;11.560;2022-12-29T11:50:02;12.50;99.90
48376;DHT22;34178;50.904;11.560;2022-12-29T11:52:35;12.50;99.90
48376;DHT22;34178;50.904;11.560;2022-12-29T11:55:05;12.50;99.90
48376;DHT22;34178;50.904;11.560;2022-12-29T11:57:33;12.50;99.90
48376;DHT22;34178;50.904;11.560;2022-12-29T12:00:14;12.40;99.90
48376;DHT22;34178;50.904;11.560;2022-12-29T12:08:12;12.30;99.90
48376;DHT22;34178;50.904;11.560;2022-12-29T12:13:29;12.50;99.90
48376;DHT22;34178;50.904;11.560;2022-12-29T12:16:14;12.60;99.90
48376;DHT22;34178;50.904;11.560;2022-12-29T12:18:51;12.60;99.90
48376;DHT22;34178;50.904;11.560;2022-12-29T12:21:23;12.60;99.90
48376;DHT22;34178;50.904;11.560;2022-12-29T12:29:20;12.50;99.90
48376;DHT22;34178;50.904;11.560;2022-12-29T12:31:54;12.40;99.90
48376;DHT22;34178;50.904;11.560;2022-12-29T12:40:07;12.00;99.90
48376;DHT22;34178;50.904;11.560;2022-12-29T12:42:42;11.80;99.90
48376;DHT22;34178;50.904;11.560;2022-12-29T12:45:27;11.70;99.90
48376;DHT22;34178;50.904;11.560;2022-12-29T12:48:07;11.70;99.90
48376;DHT22;34178;50.904;11.560;2022-12-29T12:51:25;11.60;99.90
48376;DHT22;34178;50.904;11.560;2022-12-29T12:59:13;11.40;99.90
48376;DHT22;34178;50.904;11.560;2022-12-29T13:10:32;11.10;99.90
48376;DHT22;34178;50.904;11.560;2022-12-29T13:18:52;11.00;99.90
48376;DHT22;34178;50.904;11.560;2022-12-29T13:38:12;11.20;99.90
48376;DHT22;34178;50.904;11.560;2022-12-29T13:40:45;11.20;99.90
48376;DHT22;34178;50.904;11.560;2022-12-29T13:43:13;11.20;99.90
48376;DHT22;34178;50.904;11.560;2022-12-29T13:45:40;11.20;99.90
48376;DHT22;34178;50.904;11.560;2022-12-29T13:48:17;11.20;99.90
48376;DHT22;34178;50.904;11.560;2022-12-29T13:50:57;11.20;99.90
48376;DHT22;34178;50.904;11.560;2022-12-29T13:56:51;11.30;99.90
48376;DHT22;34178;50.904;11.560;2022-12-29T14:00:07;11.30;99.90
48376;DHT22;34178;50.904;11.560;2022-12-29T14:02:26;11.30;99.90
48376;DHT22;34178;50.904;11.560;2022-12-29T14:05:26;11.30;99.90
48376;DHT22;34178;50.904;11.560;2022-12-29T14:08:16;11.30;99.90
48376;DHT22;34178;50.904;11.560;2022-12-29T14:10:52;11.20;99.90
48376;DHT22;34178;50.904;11.560;2022-12-29T14:13:22;11.20;99.90
48376;DHT22;34178;50.904;11.560;2022-12-29T14:15:56;11.20;99.90
48376;DHT22;34178;50.904;11.560;2022-12-29T14:18:30;11.20;99.90
48376;DHT22;34178;50.904;11.560;2022-12-29T14:21:09;11.20;99.90
48376;DHT22;34178;50.904;11.560;2022-12-29T14:23:44;11.10;99.90
48376;DHT22;34178;50.904;11.560;2022-12-29T14:26:14;11.10;99.90
48376;DHT22;34178;50.904;11.560;2022-12-29T14:28:45;11.10;99.90
48376;DHT22;34178;50.904;11.560;2022-12-29T14:33:41;11.00;99.90
48376;DHT22;34178;50.904;11.560;2022-12-29T14:36:26;11.00;99.90
48376;DHT22;34178;50.904;11.560;2022-12-29T14:38:58;11.00;99.90
48376;DHT22;34178;50.904;11.560;2022-12-29T14:41:26;10.90;99.90
48376;DHT22;34178;50.904;11.560;2022-12-29T14:44:21;10.90;99.90
48376;DHT22;34178;50.904;11.560;2022-12-29T14:49:22;10.80;99.90
48376;DHT22;34178;50.904;11.560;2022-12-29T14:52:03;10.80;99.90
48376;DHT22;34178;50.904;11.560;2022-12-29T14:57:09;10.70;99.90
48376;DHT22;34178;50.904;11.560;2022-12-29T14:59:39;10.70;99.90
48376;DHT22;34178;50.904;11.560;2022-12-29T15:02:17;10.70;99.90
48376;DHT22;34178;50.904;11.560;2022-12-29T15:04:44;10.70;99.90
48376;DHT22;34178;50.904;11.560;2022-12-29T15:07:12;10.60;99.90
48376;DHT22;34178;50.904;11.560;2022-12-29T15:10:05;10.60;99.90
48376;DHT22;34178;50.904;11.560;2022-12-29T15:12:41;10.50;99.90
48376;DHT22;34178;50.904;11.560;2022-12-29T15:15:27;10.50;99.90
48376;DHT22;34178;50.904;11.560;2022-12-29T15:17:55;10.50;99.90
48376;DHT22;34178;50.904;11.560;2022-12-29T15:20:26;10.40;99.90
48376;DHT22;34178;50.904;11.560;2022-12-29T15:23:12;10.30;99.90
48376;DHT22;34178;50.904;11.560;2022-12-29T15:25:55;10.20;99.90
48376;DHT22;34178;50.904;11.560;2022-12-29T15:28:22;10.20;99.90
48376;DHT22;34178;50.904;11.560;2022-12-29T15:31:02;10.10;99.90
48376;DHT22;34178;50.904;11.560;2022-12-29T15:33:29;9.90;99.90
48376;DHT22;34178;50.904;11.560;2022-12-29T15:35:57;9.80;99.90
48376;DHT22;34178;50.904;11.560;2022-12-29T15:38:29;9.60;99.90
48376;DHT22;34178;50.904;11.560;2022-12-29T15:40:58;9.40;99.90
48376;DHT22;34178;50.904;11.560;2022-12-29T15:46:03;9.00;99.90
48376;DHT22;34178;50.904;11.560;2022-12-29T15:48:30;8.80;99.90
48376;DHT22;34178;50.904;11.560;2022-12-29T15:50:56;8.70;99.90
48376;DHT22;34178;50.904;11.560;2022-12-29T15:53:27;8.50;99.90
48376;DHT22;34178;50.904;11.560;2022-12-29T15:55:54;8.40;99.90
48376;DHT22;34178;50.904;11.560;2022-12-29T15:58:26;8.20;99.90
48376;DHT22;34178;50.904;11.560;2022-12-29T16:01:00;8.10;99.90
48376;DHT22;34178;50.904;11.560;2022-12-29T16:03:29;7.90;99.90
48376;DHT22;34178;50.904;11.560;2022-12-29T16:06:26;7.70;99.90
48376;DHT22;34178;50.904;11.560;2022-12-29T16:09:02;7.60;99.90
48376;DHT22;34178;50.904;11.560;2022-12-29T16:11:34;7.50;99.90
48376;DHT22;34178;50.904;11.560;2022-12-29T16:14:02;7.40;99.90
48376;DHT22;34178;50.904;11.560;2022-12-29T16:16:35;7.30;99.90
48376;DHT22;34178;50.904;11.560;2022-12-29T16:19:13;7.30;99.90
48376;DHT22;34178;50.904;11.560;2022-12-29T16:21:40;7.20;99.90
48376;DHT22;34178;50.904;11.560;2022-12-29T16:24:12;7.10;99.90
48376;DHT22;34178;50.904;11.560;2022-12-29T16:26:39;7.10;99.90
48376;DHT22;34178;50.904;11.560;2022-12-29T16:29:12;7.00;99.90
48376;DHT22;34178;50.904;11.560;2022-12-29T16:31:56;6.90;99.90
48376;DHT22;34178;50.904;11.560;2022-12-29T16:34:28;6.90;99.90
48376;DHT22;34178;50.904;11.560;2022-12-29T16:37:02;6.80;99.90
48376;DHT22;34178;50.904;11.560;2022-12-29T16:39:38;6.80;99.90
48376;DHT22;34178;50.904;11.560;2022-12-29T16:42:34;6.70;99.90
48376;DHT22;34178;50.904;11.560;2022-12-29T16:50:28;6.60;99.90
48376;DHT22;34178;50.904;11.560;2022-12-29T16:52:54;6.60;99.90
48376;DHT22;34178;50.904;11.560;2022-12-29T16:55:20;6.60;99.90
48376;DHT22;34178;50.904;11.560;2022-12-29T16:57:48;6.50;99.90
48376;DHT22;34178;50.904;11.560;2022-12-29T17:00:23;6.40;99.90
48376;DHT22;34178;50.904;11.560;2022-12-29T17:02:50;6.30;99.90
48376;DHT22;34178;50.904;11.560;2022-12-29T17:05:17;6.00;99.90
48376;DHT22;34178;50.904;11.560;2022-12-29T17:07:44;6.00;99.90
48376;DHT22;34178;50.904;11.560;2022-12-29T17:10:10;6.00;99.90
48376;DHT22;34178;50.904;11.560;2022-12-29T17:12:37;6.00;99.90
48376;DHT22;34178;50.904;11.560;2022-12-29T17:15:05;5.90;99.90
48376;DHT22;34178;50.904;11.560;2022-12-29T17:17:49;5.90;99.90
48376;DHT22;34178;50.904;11.560;2022-12-29T17:22:45;5.80;99.90
48376;DHT22;34178;50.904;11.560;2022-12-29T17:25:13;5.80;99.90
48376;DHT22;34178;50.904;11.560;2022-12-29T17:27:48;5.80;99.90
48376;DHT22;34178;50.904;11.560;2022-12-29T17:30:21;5.90;99.90
48376;DHT22;34178;50.904;11.560;2022-12-29T17:33:05;5.90;99.90
48376;DHT22;34178;50.904;11.560;2022-12-29T17:35:33;5.90;99.90
48376;DHT22;34178;50.904;11.560;2022-12-29T17:37:59;5.80;99.90
48376;DHT22;34178;50.904;11.560;2022-12-29T17:40:27;5.70;99.90
48376;DHT22;34178;50.904;11.560;2022-12-29T17:42:55;5.70;99.90
48376;DHT22;34178;50.904;11.560;2022-12-29T17:47:48;5.50;99.90
48376;DHT22;34178;50.904;11.560;2022-12-29T17:50:23;5.40;99.90
48376;DHT22;34178;50.904;11.560;2022-12-29T17:52:55;5.40;99.90
48376;DHT22;34178;50.904;11.560;2022-12-29T17:55:22;5.40;99.90
48376;DHT22;34178;50.904;11.560;2022-12-29T17:57:49;5.40;99.90
48376;DHT22;34178;50.904;11.560;2022-12-29T18:00:35;5.40;99.90
48376;DHT22;34178;50.904;11.560;2022-12-29T18:03:00;5.40;99.90
48376;DHT22;34178;50.904;11.560;2022-12-29T18:05:29;5.40;99.90
48376;DHT22;34178;50.904;11.560;2022-12-29T18:07:57;5.40;99.90
48376;DHT22;34178;50.904;11.560;2022-12-29T18:10:26;5.40;99.90
48376;DHT22;34178;50.904;11.560;2022-12-29T18:12:54;5.30;99.90
48376;DHT22;34178;50.904;11.560;2022-12-29T18:15:24;5.40;99.90
48376;DHT22;34178;50.904;11.560;2022-12-29T18:18:18;5.40;99.90